createdAt,value
2022-10-22T00:02:21.747Z,96.75
2022-10-22T00:04:52.783Z,96.65
2022-10-22T00:07:23.084Z,96.49
2022-10-22T00:09:53.022Z,95.85
2022-10-22T00:12:23.071Z,95.64
2022-10-22T00:14:52.831Z,95.43
2022-10-22T00:17:23.693Z,95.38
2022-10-22T00:19:53.475Z,95.41
2022-10-22T00:22:23.219Z,95.25
2022-10-22T00:24:52.897Z,95.42
2022-10-22T00:27:23.885Z,95.59
2022-10-22T00:29:54.615Z,95.27
2022-10-22T00:32:24.621Z,95.61
2022-10-22T00:34:54.433Z,95.42
2022-10-22T00:37:24.561Z,95.67
2022-10-22T00:39:54.378Z,95.69
2022-10-22T00:42:27.514Z,95.23
2022-10-22T00:45:12.877Z,94.99
2022-10-22T00:48:14.425Z,95.11
2022-10-22T00:50:47.095Z,95.58
2022-10-22T00:53:21.281Z,95.62
2022-10-22T00:55:55.536Z,95.72
2022-10-22T00:58:29.469Z,95.67
2022-10-22T01:01:00.192Z,96.09
2022-10-22T01:03:30.598Z,96.10
2022-10-22T01:06:06.518Z,96.06
2022-10-22T01:08:44.423Z,95.81
2022-10-22T01:11:22.657Z,95.72
2022-10-22T01:14:10.704Z,95.85
2022-10-22T01:17:02.501Z,96.21
2022-10-22T01:19:33.429Z,96.83
2022-10-22T01:22:28.633Z,96.39
2022-10-22T01:25:06.391Z,96.69
2022-10-22T01:27:50.513Z,96.82
2022-10-22T01:30:20.890Z,97.25
2022-10-22T01:33:04.637Z,96.91
2022-10-22T01:35:40.128Z,97.14
2022-10-22T01:38:14.069Z,96.97
2022-10-22T01:40:45.492Z,96.89
2022-10-22T01:43:16.305Z,96.85
2022-10-22T01:45:53.289Z,96.89
2022-10-22T01:48:44.210Z,96.67
2022-10-22T01:51:39.707Z,96.60
2022-10-22T01:54:48.124Z,96.69
2022-10-22T01:57:38.530Z,96.74
2022-10-22T02:00:12.164Z,96.72
2022-10-22T02:02:57.891Z,96.84
2022-10-22T02:05:42.882Z,96.32
2022-10-22T02:08:28.621Z,96.35
2022-10-22T02:11:00.161Z,96.63
2022-10-22T02:13:37.915Z,96.81
2022-10-22T02:16:11.108Z,96.96
2022-10-22T02:18:44.694Z,96.94
2022-10-22T02:21:15.356Z,97.27
2022-10-22T02:23:46.110Z,97.35
2022-10-22T02:26:25.933Z,97.44
2022-10-22T02:29:22.554Z,97.34
2022-10-22T02:31:55.324Z,97.41
2022-10-22T02:34:27.676Z,97.53
2022-10-22T02:36:59.353Z,97.67
2022-10-22T02:39:30.971Z,97.74
2022-10-22T02:42:03.484Z,97.77
2022-10-22T02:44:33.409Z,97.89
2022-10-22T02:47:03.136Z,98.13
2022-10-22T02:49:32.813Z,97.87
2022-10-22T02:52:03.026Z,98.05
2022-10-22T02:54:32.734Z,98.00
2022-10-22T02:57:02.466Z,98.17
2022-10-22T02:59:32.148Z,98.03
2022-10-22T03:02:01.941Z,97.92
2022-10-22T03:04:31.717Z,97.75
2022-10-22T03:07:02.385Z,97.73
2022-10-22T03:09:32.172Z,97.71
2022-10-22T03:12:01.889Z,97.77
2022-10-22T03:14:31.593Z,97.61
2022-10-22T03:17:01.339Z,97.58
2022-10-22T03:19:30.997Z,97.50
2022-10-22T03:22:26.409Z,97.45
2022-10-22T03:25:00.473Z,97.39
2022-10-22T03:27:31.755Z,97.60
2022-10-22T03:30:02.937Z,97.70
2022-10-22T03:32:32.816Z,97.75
2022-10-22T03:35:02.665Z,97.75
2022-10-22T03:37:33.207Z,97.90
2022-10-22T03:40:03.831Z,97.84
2022-10-22T03:42:33.906Z,97.88
2022-10-22T03:45:04.563Z,97.94
2022-10-22T03:47:34.624Z,98.06
2022-10-22T03:50:04.994Z,98.20
2022-10-22T03:52:40.597Z,98.41
2022-10-22T03:55:11.301Z,98.44
2022-10-22T03:57:41.689Z,98.36
2022-10-22T04:00:12.058Z,98.38
2022-10-22T04:02:41.859Z,98.51
2022-10-22T04:05:11.609Z,98.55
2022-10-22T04:07:41.803Z,98.73
2022-10-22T04:10:12.256Z,99.04
2022-10-22T04:12:42.289Z,98.84
2022-10-22T04:15:12.101Z,98.66
2022-10-22T04:17:42.212Z,99.06
2022-10-22T04:20:12.726Z,99.34
2022-10-22T04:22:42.646Z,99.16
2022-10-22T04:25:12.339Z,99.43
2022-10-22T04:27:42.518Z,99.03
2022-10-22T04:30:13.003Z,98.90
2022-10-22T04:32:42.668Z,99.01
2022-10-22T04:35:12.473Z,99.04
2022-10-22T04:37:42.624Z,99.17
2022-10-22T04:40:13.389Z,99.08
2022-10-22T04:42:43.156Z,99.09
2022-10-22T04:45:13.059Z,99.17
2022-10-22T04:47:43.037Z,99.24
2022-10-22T04:50:13.018Z,99.07
2022-10-22T04:52:43.047Z,99.29
2022-10-22T04:55:12.725Z,99.24
2022-10-22T04:57:42.809Z,99.36
2022-10-22T05:00:13.357Z,99.30
2022-10-22T05:02:46.080Z,99.24
2022-10-22T05:05:16.256Z,99.48
2022-10-22T05:07:46.175Z,99.47
2022-10-22T05:10:16.839Z,99.45
2022-10-22T05:12:46.542Z,99.22
2022-10-22T05:15:17.168Z,99.10
2022-10-22T05:17:46.923Z,98.92
2022-10-22T05:20:16.737Z,98.84
2022-10-22T05:22:46.405Z,98.81
2022-10-22T05:25:16.410Z,98.68
2022-10-22T05:27:50.040Z,98.73
2022-10-22T05:30:20.024Z,98.55
2022-10-22T05:32:50.037Z,98.21
2022-10-22T05:35:20.270Z,98.21
2022-10-22T05:37:50.014Z,98.22
2022-10-22T05:40:30.200Z,98.22
2022-10-22T05:43:01.563Z,98.24
2022-10-22T05:45:31.475Z,98.19
2022-10-22T05:48:01.120Z,98.37
2022-10-22T05:50:30.820Z,98.37
2022-10-22T05:53:00.479Z,98.47
2022-10-22T05:55:30.165Z,98.74
2022-10-22T05:57:59.855Z,98.90
2022-10-22T06:00:29.613Z,98.78
2022-10-22T06:02:59.744Z,98.96
2022-10-22T06:05:29.627Z,99.07
2022-10-22T06:08:00.303Z,99.17
2022-10-22T06:10:30.048Z,99.18
2022-10-22T06:12:59.784Z,99.22
2022-10-22T06:15:29.835Z,99.23
2022-10-22T06:17:59.695Z,99.29
2022-10-22T06:20:29.775Z,99.32
2022-10-22T06:23:00.216Z,99.44
2022-10-22T06:25:29.980Z,99.58
2022-10-22T06:28:00.198Z,99.59
2022-10-22T06:30:29.947Z,99.52
2022-10-22T06:32:59.603Z,99.62
2022-10-22T06:35:29.308Z,99.58
2022-10-22T06:37:59.137Z,99.53
2022-10-22T06:40:28.842Z,99.61
2022-10-22T06:43:00.298Z,99.62
2022-10-22T06:45:31.342Z,99.55
2022-10-22T06:48:01.703Z,99.58
2022-10-22T06:50:37.056Z,99.37
2022-10-22T06:53:07.511Z,99.15
2022-10-22T06:55:37.792Z,99.02
2022-10-22T06:58:08.042Z,98.88
2022-10-22T07:00:37.714Z,98.62
2022-10-22T07:03:07.673Z,98.47
2022-10-22T07:05:37.368Z,98.42
2022-10-22T07:08:07.333Z,98.28
2022-10-22T07:10:37.280Z,98.26
2022-10-22T07:13:06.955Z,98.29
2022-10-22T07:15:36.643Z,98.20
2022-10-22T07:18:06.578Z,98.32
2022-10-22T07:20:37.177Z,98.43
2022-10-22T07:23:07.253Z,98.43
2022-10-22T07:25:37.014Z,98.34
2022-10-22T07:28:06.844Z,98.30
2022-10-22T07:30:38.370Z,98.04
2022-10-22T07:33:08.488Z,97.99
2022-10-22T07:35:43.285Z,98.09
2022-10-22T07:38:13.951Z,98.16
2022-10-22T07:40:44.002Z,98.07
2022-10-22T07:43:14.415Z,98.04
2022-10-22T07:45:45.381Z,98.00
2022-10-22T07:48:16.046Z,98.02
2022-10-22T07:50:46.239Z,98.01
2022-10-22T07:53:16.293Z,97.99
2022-10-22T07:55:49.240Z,98.01
2022-10-22T07:58:23.384Z,98.03
2022-10-22T08:00:57.822Z,97.97
2022-10-22T08:03:29.026Z,97.83
2022-10-22T08:05:59.661Z,97.78
2022-10-22T08:08:31.332Z,97.74
2022-10-22T08:11:03.236Z,97.62
2022-10-22T08:13:33.846Z,97.60
2022-10-22T08:16:03.993Z,97.56
2022-10-22T08:18:34.015Z,97.62
2022-10-22T08:21:04.109Z,97.68
2022-10-22T08:23:34.259Z,97.73
2022-10-22T08:26:04.651Z,97.85
2022-10-22T08:28:38.204Z,97.86
2022-10-22T08:31:09.537Z,97.85
2022-10-22T08:33:40.718Z,97.85
2022-10-22T08:36:11.164Z,97.91
2022-10-22T08:38:41.449Z,98.16
2022-10-22T08:41:16.062Z,98.26
2022-10-22T08:44:11.859Z,98.30
2022-10-22T08:46:56.351Z,98.32
2022-10-22T08:49:31.207Z,98.38
2022-10-22T08:52:02.084Z,98.60
2022-10-22T08:54:53.586Z,98.60
2022-10-22T09:00:23.069Z,98.69
2022-10-22T09:02:58.795Z,98.82
2022-10-22T09:06:00.940Z,98.70
2022-10-22T09:08:31.094Z,98.72
2022-10-22T09:11:24.879Z,98.65
2022-10-22T09:13:56.791Z,98.49
2022-10-22T09:16:40.738Z,98.36
2022-10-22T09:19:25.111Z,98.04
2022-10-22T09:22:19.497Z,97.58
2022-10-22T09:25:15.332Z,97.28
2022-10-22T09:27:45.601Z,96.96
2022-10-22T09:30:25.084Z,96.68
2022-10-22T09:33:24.022Z,96.49
2022-10-22T09:35:57.540Z,96.07
2022-10-22T09:38:30.981Z,95.66
2022-10-22T09:41:05.040Z,95.71
2022-10-22T09:43:37.213Z,95.06
2022-10-22T09:46:14.430Z,94.76
2022-10-22T09:48:51.549Z,94.70
2022-10-22T09:51:23.084Z,94.43
2022-10-22T09:54:02.366Z,94.17
2022-10-22T09:56:44.537Z,93.97
2022-10-22T09:59:19.508Z,93.29
2022-10-22T10:02:04.964Z,92.68
2022-10-22T10:04:58.414Z,92.23
2022-10-22T10:07:33.124Z,92.82
2022-10-22T10:10:04.726Z,92.72
2022-10-22T10:13:02.932Z,91.84
2022-10-22T10:16:09.189Z,89.12
2022-10-22T10:18:51.291Z,86.75
2022-10-22T10:21:33.336Z,87.79
2022-10-22T10:24:03.130Z,86.17
2022-10-22T10:26:44.600Z,77.08
2022-10-22T10:29:30.930Z,78.79
2022-10-22T10:32:14.908Z,78.96
2022-10-22T10:34:52.965Z,76.20
2022-10-22T10:37:29.552Z,81.74
2022-10-22T10:40:26.953Z,83.80
2022-10-22T10:43:16.794Z,83.85
2022-10-22T10:46:01.317Z,85.17
2022-10-22T10:48:40.404Z,86.12
2022-10-22T10:51:19.349Z,86.38
2022-10-22T10:54:04.242Z,82.67
2022-10-22T10:56:56.349Z,76.89
2022-10-22T10:59:42.748Z,73.07
2022-10-22T11:05:54.490Z,74.13
2022-10-22T11:08:34.461Z,71.65
2022-10-22T11:14:00.562Z,71.65
2022-10-22T11:16:53.539Z,70.14
2022-10-22T11:19:59.838Z,72.37
2022-10-22T11:22:36.567Z,73.53
2022-10-22T11:25:15.425Z,74.08
2022-10-22T11:28:08.013Z,75.26
2022-10-22T11:30:44.679Z,74.16
2022-10-22T11:33:20.083Z,75.61
2022-10-22T11:35:52.109Z,69.78
2022-10-22T11:38:28.456Z,71.02
2022-10-22T11:41:00.038Z,74.43
2022-10-22T11:43:34.718Z,73.32
2022-10-22T11:46:24.501Z,75.62
2022-10-22T11:49:16.886Z,75.52
2022-10-22T11:51:48.473Z,77.15
2022-10-22T11:54:37.964Z,77.98
2022-10-22T11:57:17.158Z,75.14
2022-10-22T11:59:51.675Z,74.29
2022-10-22T12:02:42.270Z,75.85
2022-10-22T12:05:24.579Z,74.86
2022-10-22T12:08:01.331Z,74.97
2022-10-22T12:11:04.357Z,73.23
2022-10-22T12:13:53.622Z,78.28
2022-10-22T12:16:43.931Z,71.82
2022-10-22T12:19:25.154Z,77.06
2022-10-22T12:22:04.517Z,75.10
2022-10-22T12:24:41.647Z,76.40
2022-10-22T12:27:23.390Z,75.67
2022-10-22T12:30:04.251Z,76.47
2022-10-22T12:32:44.106Z,78.38
2022-10-22T12:35:19.749Z,77.67
2022-10-22T12:37:58.944Z,77.18
2022-10-22T12:40:31.898Z,75.88
2022-10-22T12:43:13.566Z,77.21
2022-10-22T12:45:46.906Z,77.45
2022-10-22T12:48:19.504Z,78.33
2022-10-22T12:50:53.397Z,74.04
2022-10-22T12:53:31.378Z,73.62
2022-10-22T12:56:09.090Z,72.68
2022-10-22T12:59:04.055Z,73.17
2022-10-22T13:01:40.344Z,71.23
2022-10-22T13:04:24.369Z,70.93
2022-10-22T13:07:18.546Z,71.95
2022-10-22T13:09:57.992Z,66.16
2022-10-22T13:12:36.234Z,62.36
2022-10-22T13:15:35.407Z,65.30
2022-10-22T13:18:08.420Z,65.15
2022-10-22T13:20:38.685Z,63.89
2022-10-22T13:23:19.714Z,58.30
2022-10-22T13:26:04.524Z,57.63
2022-10-22T13:28:35.191Z,64.53
2022-10-22T13:31:16.680Z,63.63
2022-10-22T13:33:53.478Z,63.29
2022-10-22T13:36:24.520Z,67.50
2022-10-22T13:38:54.568Z,67.41
2022-10-22T13:41:29.622Z,69.03
2022-10-22T13:44:00.686Z,66.45
2022-10-22T13:46:30.821Z,67.10
2022-10-22T13:49:01.530Z,66.51
2022-10-22T13:51:38.979Z,68.63
2022-10-22T13:54:20.761Z,66.91
2022-10-22T13:56:51.770Z,69.25
2022-10-22T13:59:23.729Z,63.92
2022-10-22T14:01:56.183Z,57.90
2022-10-22T14:04:26.595Z,60.37
2022-10-22T14:07:00.000Z,62.75
2022-10-22T14:09:33.674Z,58.90
2022-10-22T14:12:03.415Z,59.65
2022-10-22T14:14:33.136Z,63.94
2022-10-22T14:17:03.602Z,64.46
2022-10-22T14:19:34.110Z,67.62
2022-10-22T14:22:04.341Z,64.91
2022-10-22T14:24:34.406Z,65.64
2022-10-22T14:27:04.448Z,63.64
2022-10-22T14:29:35.108Z,64.98
2022-10-22T14:32:05.289Z,61.59
2022-10-22T14:34:35.004Z,59.78
2022-10-22T14:37:04.961Z,61.06
2022-10-22T14:39:35.624Z,62.05
2022-10-22T14:42:05.445Z,60.15
2022-10-22T14:44:35.162Z,63.12
2022-10-22T14:47:04.917Z,56.98
2022-10-22T14:49:34.767Z,54.41
2022-10-22T14:52:04.617Z,58.79
2022-10-22T14:54:35.932Z,61.00
2022-10-22T14:57:06.471Z,58.35
2022-10-22T14:59:37.151Z,60.82
2022-10-22T15:02:06.884Z,61.59
2022-10-22T15:04:36.691Z,62.45
2022-10-22T15:07:06.674Z,67.57
2022-10-22T15:09:36.575Z,63.28
2022-10-22T15:12:07.003Z,64.10
2022-10-22T15:14:36.714Z,61.74
2022-10-22T15:17:06.559Z,62.78
2022-10-22T15:19:36.266Z,63.56
2022-10-22T15:22:07.085Z,65.22
2022-10-22T15:24:37.643Z,64.52
2022-10-22T15:27:07.645Z,60.74
2022-10-22T15:29:37.623Z,63.89
2022-10-22T15:32:08.129Z,63.86
2022-10-22T15:34:39.426Z,63.45
2022-10-22T15:37:13.510Z,61.52
2022-10-22T15:39:44.327Z,63.41
2022-10-22T15:42:15.773Z,65.21
2022-10-22T15:44:46.131Z,57.33
2022-10-22T15:47:15.866Z,59.20
2022-10-22T15:49:45.687Z,60.28
2022-10-22T15:52:15.446Z,57.87
2022-10-22T15:54:45.195Z,60.32
2022-10-22T15:57:15.222Z,62.42
2022-10-22T15:59:45.092Z,62.13
2022-10-22T16:02:14.826Z,62.23
2022-10-22T16:04:44.498Z,65.28
2022-10-22T16:07:14.267Z,65.57
2022-10-22T16:09:44.041Z,65.49
2022-10-22T16:12:15.377Z,65.21
2022-10-22T16:14:47.913Z,65.48
2022-10-22T16:17:18.390Z,65.96
2022-10-22T16:19:49.819Z,65.77
2022-10-22T16:22:19.552Z,65.28
2022-10-22T16:24:49.393Z,64.64
2022-10-22T16:27:19.364Z,61.98
2022-10-22T16:29:49.039Z,64.16
2022-10-22T16:32:19.056Z,64.52
2022-10-22T16:34:49.768Z,62.85
2022-10-22T16:37:19.564Z,61.47
2022-10-22T16:39:50.638Z,60.06
2022-10-22T16:42:20.317Z,65.50
2022-10-22T16:44:50.068Z,59.78
2022-10-22T16:47:20.580Z,62.13
2022-10-22T16:49:52.110Z,55.42
2022-10-22T16:52:27.580Z,54.19
2022-10-22T16:55:04.909Z,56.54
2022-10-22T16:57:37.271Z,56.25
2022-10-22T17:00:08.321Z,53.47
2022-10-22T17:02:38.686Z,52.61
2022-10-22T17:05:09.013Z,54.98
2022-10-22T17:07:39.695Z,52.38
2022-10-22T17:10:11.469Z,58.96
2022-10-22T17:12:41.975Z,62.22
2022-10-22T17:15:12.204Z,62.42
2022-10-22T17:17:42.234Z,61.18
2022-10-22T17:20:12.936Z,62.72
2022-10-22T17:22:43.557Z,54.34
2022-10-22T17:25:26.005Z,60.55
2022-10-22T17:27:56.294Z,58.68
2022-10-22T17:30:28.168Z,59.96
2022-10-22T17:33:01.751Z,59.92
2022-10-22T17:35:32.133Z,64.48
2022-10-22T17:38:02.350Z,60.36
2022-10-22T17:40:32.143Z,60.45
2022-10-22T17:43:01.833Z,59.72
2022-10-22T17:45:31.557Z,55.40
2022-10-22T17:48:03.030Z,53.77
2022-10-22T17:50:33.283Z,52.14
2022-10-22T17:53:03.026Z,50.88
2022-10-22T17:55:32.930Z,54.09
2022-10-22T17:58:03.749Z,49.62
2022-10-22T18:00:34.564Z,49.85
2022-10-22T18:03:04.374Z,46.30
2022-10-22T18:05:35.525Z,49.93
2022-10-22T18:08:07.786Z,49.95
2022-10-22T18:10:41.739Z,49.94
2022-10-22T18:13:12.155Z,53.78
2022-10-22T18:15:41.875Z,52.41
2022-10-22T18:18:11.587Z,60.42
2022-10-22T18:20:41.370Z,55.95
2022-10-22T18:23:11.171Z,57.19
2022-10-22T18:25:41.000Z,54.31
2022-10-22T18:28:11.681Z,54.64
2022-10-22T18:30:44.394Z,53.42
2022-10-22T18:33:16.346Z,54.15
2022-10-22T18:35:48.234Z,56.85
2022-10-22T18:38:20.781Z,54.64
2022-10-22T18:40:51.597Z,56.32
2022-10-22T18:43:21.351Z,50.03
2022-10-22T18:45:51.069Z,49.95
2022-10-22T18:48:24.124Z,50.34
2022-10-22T18:51:02.891Z,53.52
2022-10-22T18:53:33.374Z,58.04
2022-10-22T18:56:07.006Z,55.61
2022-10-22T18:58:46.869Z,54.22
2022-10-22T19:01:21.074Z,52.54
2022-10-22T19:03:51.660Z,57.91
2022-10-22T19:06:33.322Z,56.83
2022-10-22T19:09:06.888Z,46.66
2022-10-22T19:11:37.817Z,41.01
2022-10-22T19:14:07.630Z,39.26
2022-10-22T19:16:40.593Z,42.70
2022-10-22T19:19:10.676Z,44.88
2022-10-22T19:21:40.408Z,47.05
2022-10-22T19:24:11.586Z,45.18
2022-10-22T19:26:42.187Z,43.62
2022-10-22T19:29:12.587Z,46.86
2022-10-22T19:31:42.814Z,44.60
2022-10-22T19:34:12.833Z,45.60
2022-10-22T19:36:42.705Z,46.60
2022-10-22T19:39:13.033Z,48.31
2022-10-22T19:41:42.779Z,52.30
2022-10-22T19:44:12.662Z,51.79
2022-10-22T19:46:42.832Z,52.92
2022-10-22T19:49:14.182Z,54.63
2022-10-22T19:51:45.046Z,56.19
2022-10-22T19:54:22.137Z,59.55
2022-10-22T19:56:52.757Z,59.72
2022-10-22T19:59:27.307Z,60.27
2022-10-22T20:02:00.247Z,59.98
2022-10-22T20:04:30.353Z,60.24
2022-10-22T20:07:00.205Z,61.32
2022-10-22T20:09:30.196Z,60.76
2022-10-22T20:12:00.728Z,63.45
2022-10-22T20:14:30.544Z,60.65
2022-10-22T20:17:01.233Z,62.63
2022-10-22T20:19:32.161Z,62.52
2022-10-22T20:22:02.426Z,63.27
2022-10-22T20:24:33.476Z,65.63
2022-10-22T20:27:03.582Z,65.17
2022-10-22T20:29:33.497Z,66.92
2022-10-22T20:32:06.676Z,65.72
2022-10-22T20:34:39.175Z,66.61
2022-10-22T20:37:09.093Z,66.28
2022-10-22T20:39:39.148Z,69.02
2022-10-22T20:42:08.905Z,66.64
2022-10-22T20:44:38.968Z,67.26
2022-10-22T20:47:10.803Z,66.90
2022-10-22T20:49:41.097Z,67.60
2022-10-22T20:52:11.056Z,66.58
2022-10-22T20:54:43.660Z,66.45
2022-10-22T20:57:14.799Z,67.23
2022-10-22T20:59:44.617Z,67.56
2022-10-22T21:02:14.475Z,68.32
2022-10-22T21:04:45.716Z,71.98
2022-10-22T21:07:16.755Z,71.72
2022-10-22T21:09:47.464Z,68.82
2022-10-22T21:12:17.238Z,74.33
2022-10-22T21:14:48.943Z,74.85
2022-10-22T21:17:19.927Z,75.19
2022-10-22T21:19:49.806Z,76.75
2022-10-22T21:22:19.874Z,78.98
2022-10-22T21:24:49.600Z,77.27
2022-10-22T21:27:19.302Z,78.90
2022-10-22T21:29:49.072Z,79.84
2022-10-22T21:32:18.748Z,79.87
2022-10-22T21:34:48.474Z,80.45
2022-10-22T21:37:18.566Z,80.88
2022-10-22T21:39:48.299Z,81.70
2022-10-22T21:42:18.149Z,82.03
2022-10-22T21:44:47.826Z,81.43
2022-10-22T21:47:17.537Z,82.33
2022-10-22T21:49:47.580Z,80.74
2022-10-22T21:52:17.451Z,80.57
2022-10-22T21:54:47.142Z,78.57
2022-10-22T21:57:16.893Z,78.80
2022-10-22T21:59:46.759Z,78.56
2022-10-22T22:02:16.495Z,77.81
2022-10-22T22:04:46.229Z,78.41
2022-10-22T22:07:15.915Z,77.89
2022-10-22T22:09:45.588Z,77.91
2022-10-22T22:12:15.286Z,78.19
2022-10-22T22:14:45.063Z,78.44
2022-10-22T22:17:16.559Z,79.30
2022-10-22T22:19:46.433Z,80.04
2022-10-22T22:22:16.158Z,80.17
2022-10-22T22:24:46.306Z,80.47
2022-10-22T22:29:55.758Z,80.42
2022-10-22T22:32:25.821Z,80.98
2022-10-22T22:34:55.482Z,80.48
2022-10-22T22:37:25.197Z,81.31
2022-10-22T22:39:56.203Z,80.66
2022-10-22T22:42:26.606Z,80.22
2022-10-22T22:44:56.304Z,80.92
2022-10-22T22:47:26.024Z,80.96
2022-10-22T22:49:55.723Z,81.45
2022-10-22T22:52:25.486Z,81.44
2022-10-22T22:54:55.261Z,81.40
2022-10-22T22:57:24.950Z,81.10
2022-10-22T22:59:55.762Z,81.54
2022-10-22T23:02:26.377Z,81.79
2022-10-22T23:04:56.094Z,81.84
2022-10-22T23:07:25.833Z,81.78
2022-10-22T23:09:55.571Z,81.72
2022-10-22T23:12:25.365Z,82.23
2022-10-22T23:14:55.060Z,81.48
2022-10-22T23:17:24.856Z,81.43
2022-10-22T23:19:54.918Z,82.42
2022-10-22T23:22:24.950Z,82.77
2022-10-22T23:24:54.680Z,83.50
2022-10-22T23:27:24.501Z,84.33
2022-10-22T23:29:54.243Z,84.66
2022-10-22T23:32:23.919Z,84.55
2022-10-22T23:34:53.656Z,84.19
2022-10-22T23:37:23.368Z,83.95
2022-10-22T23:39:53.198Z,84.82
2022-10-22T23:42:23.046Z,85.29
2022-10-22T23:44:52.711Z,86.15
2022-10-22T23:47:22.431Z,85.85
2022-10-22T23:49:52.150Z,86.59
2022-10-22T23:52:21.852Z,86.72
2022-10-22T23:54:51.562Z,86.85
2022-10-22T23:57:21.275Z,86.54
2022-10-22T23:59:51.305Z,86.88
